• Join FlightAware (Why Join?)
  • Login
  • US Flag 
03:22PM EDT


 

Airport Tracker/Info


-or-


 

Live Flight TrackerFlight Track Log ✈ RPA3228 ✈ 10-May-2013 ✈ KDSM - KDCA

Flight Track Log - Related Links

Times and Time Zones

All times are in EDT time to prevent confusion due to time zone crossing. See the RPA3228 flight status page for this flight to view local times or setup timezone preferences in your user account.

Time Position Orientation Groundspeed Altitude Reporting Facility
EDT Latitude Longitude Course Direction KTS MPH feet Rate Location/Type
07:16AM 41.5564 -93.6736 86° East 147 169 2,000  Level Minneapolis Center
07:17AM 41.5697 -93.6917 315° West 149 171 2,800 1,860 Climbing Minneapolis Center
07:18AM 41.5944 -93.6944 355° North 195 224 4,200 1,680 Climbing Minneapolis Center
07:18AM 41.6036 -93.6581 71° East 226 260 4,500 2,340 Climbing Minneapolis Center
07:19AM 41.4414 -93.3367 82° East  Level FlightAware Approximate
07:19AM 41.5950 -93.5997 101° East 255 293 6,600  Level Minneapolis Center
07:19AM 41.6006 -93.5608 79° East 262 302 7,500 2,580 Climbing Minneapolis Center
07:20AM 41.4500 -93.1921 90° East  Level FlightAware Approximate
07:20AM 41.5925 -93.4964 99° East 275 316 9,200  Level Minneapolis Center
07:21AM 41.4500 -93.0466 90° East  Level FlightAware Approximate
07:21AM 41.5892 -93.3833 92° East 301 346 11,400  Level Minneapolis Center
07:22AM 41.4556 -92.9014 86° East  Level FlightAware Approximate
07:22AM 41.5847 -93.2606 93° East 327 376 13,700  Level Minneapolis Center
07:23AM 41.5811 -93.1331 92° East 341 392 15,800 1,980 Climbing Minneapolis Center
07:24AM 41.5764 -92.9997 93° East 358 412 17,700 1,740 Climbing Minneapolis Center
07:25AM 41.5714 -92.8803 93° East 364 419 19,400 1,680 Climbing Minneapolis Center
07:26AM 41.5667 -92.7397 93° East 375 432 21,100 1,560 Climbing Minneapolis Center
07:27AM 41.5606 -92.5975 93° East 381 438 22,600 1,620 Climbing Minneapolis Center
07:28AM 41.5539 -92.4194 93° East 395 455 24,500 1,620 Climbing Minneapolis Center
07:29AM 41.5481 -92.2686 93° East 404 465 25,900 1,080 Climbing Minneapolis Center
07:30AM 41.5425 -92.1467 93° East 408 470 26,700 1,200 Climbing Minneapolis Center
07:31AM 41.5342 -91.9322 93° East 432 497 28,500 1,500 Climbing Chicago Center
07:32AM 41.5267 -91.7725 94° East 435 501 30,000 1,200 Climbing Chicago Center
07:33AM 41.5200 -91.6103 93° East 441 507 31,000 480 Climbing Chicago Center
07:34AM 41.5233 -91.4478 88° East 444 511 31,000 120 Level Chicago Center
07:35AM 41.5261 -91.2856 89° East 444 511 31,300 480 Climbing Chicago Center
07:36AM 41.5300 -91.0864 88° East 451 519 32,000 600 Climbing Chicago Center
07:37AM 41.5322 -90.9242 89° East 447 514 32,600 720 Climbing Chicago Center
07:38AM 41.5347 -90.7578 89° East 452 520 33,500 720 Climbing Chicago Center
07:39AM 41.5375 -90.5722 89° East 463 533 34,100 540 Climbing Chicago Center
07:40AM 41.5397 -90.3997 89° East 465 535 34,700 600 Climbing Chicago Center
07:41AM 41.5414 -90.2261 89° East 467 537 35,400 660 Climbing Chicago Center
07:42AM 41.5436 -90.0514 89° East 469 540 36,100 660 Climbing Chicago Center
07:43AM 41.5461 -89.8722 89° East 477 549 36,800 420 Climbing Chicago Center
07:44AM 41.5478 -89.6950 89° East 477 549 37,000 60 Climbing Chicago Center
07:45AM 41.5481 -89.5208 90° East 471 542 37,000  Level Chicago Center
07:46AM 41.5458 -89.3483 91° East 467 537 37,000  Level Chicago Center
07:47AM 41.5486 -89.1392 89° East 471 542 37,000  Level Chicago Center
07:48AM 41.5486 -88.9661 90° East 470 541 37,000  Level Chicago Center
07:49AM 41.5486 -88.7914 90° East 472 543 37,000  Level Chicago Center
07:50AM 41.5486 -88.6169 90° East 472 543 37,000  Level Chicago Center
07:51AM 41.5472 -88.4406 91° East 474 545 37,000  Level Chicago Center
07:52AM 41.5342 -88.2669 96° East 471 542 37,000  Level Chicago Center
07:53AM 41.4983 -88.0922 105° East 466 536 37,000  Level Chicago Center
07:54AM 41.4656 -87.9292 105° East 463 533 37,000  Level Chicago Center
07:56AM 41.4258 -87.7622 108° East 461 531 37,000  Level Chicago Center
07:57AM 41.3892 -87.5967 106° East 466 536 37,000  Level Chicago Center
07:58AM 41.3456 -87.3994 106° East 465 535 37,000  Level Chicago Center
07:59AM 41.3089 -87.2342 106° East 470 541 37,000  Level Chicago Center
08:00AM 41.2717 -87.0686 107° East 471 542 37,000  Level Chicago Center
08:01AM 41.2342 -86.9025 107° East 474 545 37,000  Level Chicago Center
08:02AM 41.1953 -86.7361 107° East 473 544 37,000  Level Chicago Center
08:03AM 41.1561 -86.5700 107° East 481 554 37,000  Level Chicago Center
08:04AM 41.1092 -86.3622 107° East 492 566 37,000  Level Chicago Center
08:05AM 41.0678 -86.1889 108° East 497 572 37,000  Level Chicago Center
08:06AM 41.0281 -86.0203 107° East 486 559 37,000  Level Chicago Center
08:07AM 40.9875 -85.8503 107° East 488 562 37,000  Level Chicago Center
08:08AM 40.9467 -85.6822 108° East 485 558 37,000  Level Chicago Center
08:09AM 40.9053 -85.5125 108° East 489 563 37,000  Level Chicago Center
08:10AM 40.8567 -85.3078 107° East 491 565 37,000  Level Chicago Center
08:11AM 40.8142 -85.1344 108° East 498 573 37,000  Level Chicago Center
08:12AM 40.7717 -84.9653 108° East 493 567 37,000  Level Chicago Center
08:13AM 40.7283 -84.7922 108° East 496 571 37,000  Level Chicago Center
08:14AM 40.6750 -84.6269 113° Southeast 494 568 37,000  Level Chicago Center
08:15AM 40.6014 -84.4311 116° Southeast 498 573 37,000  Level Chicago Center
08:15AM 40.5850 -84.3897 118° Southeast 496 571 37,000  Level Indianapolis Center
08:17AM 40.5231 -84.2250 116° Southeast 499 574 37,000  Level Indianapolis Center
08:18AM 40.4608 -84.0611 116° Southeast 499 574 37,000 -60 Level Indianapolis Center
08:19AM 40.3856 -83.8719 118° Southeast 495 570 36,900  Descending Indianapolis Center
08:20AM 40.3208 -83.7103 118° Southeast 495 570 37,000  Climbing Indianapolis Center
08:21AM 40.2833 -83.5306 105° East 504 580 37,000  Level Indianapolis Center
08:22AM 40.2586 -83.3428 100° East 513 590 37,000  Level Indianapolis Center
08:23AM 40.2322 -83.1572 100° East 511 588 37,000  Level Indianapolis Center
08:24AM 40.2056 -82.9717 101° East 510 587 37,000  Level Indianapolis Center
08:25AM 40.1789 -82.7858 101° East 513 590 37,000  Level Indianapolis Center
08:26AM 40.1517 -82.6019 101° East 511 588 37,000  Level Indianapolis Center
08:27AM 40.1036 -82.4283 110° East 503 579 37,000  Level Indianapolis Center
08:28AM 40.0517 -82.2561 111° Southeast 503 579 37,000  Level Indianapolis Center
08:29AM 40.0006 -82.0822 111° Southeast 508 585 37,000  Level Indianapolis Center
08:30AM 39.9483 -81.9086 111° Southeast 508 585 37,000  Level Indianapolis Center
08:31AM 39.8958 -81.7364 112° Southeast 508 585 37,000  Level Indianapolis Center
08:32AM 39.8500 -81.5944 113° Southeast 499 574 37,000  Level Cleveland Center
08:33AM 39.7931 -81.4097 112° Southeast 499 574 37,000  Level Cleveland Center
08:34AM 39.7503 -81.2553 110° East 499 574 37,000  Level Cleveland Center
08:35AM 39.6972 -81.0822 112° Southeast 499 574 37,000 -600 Level Cleveland Center
08:36AM 39.6436 -80.9092 112° Southeast 504 580 35,900 -1,380 Descending Cleveland Center
08:37AM 39.5917 -80.7419 112° Southeast 504 580 34,300 -1,620 Descending Cleveland Center
08:37AM 39.5733 -80.6972 118° Southeast 503 579 33,800 -1,260 Descending Indianapolis Center
08:38AM 39.5225 -80.5353 112° Southeast 487 560 32,600 -1,200 Descending Indianapolis Center
08:38AM 39.5008 -80.4544 109° East 503 579 32,100 -1,140 Descending Washington Center
08:39AM 39.4508 -80.2978 112° Southeast 490 564 31,000 -600 Descending Washington Center
08:40AM 39.4006 -80.1414 113° Southeast 476 548 31,000  Level Washington Center
08:41AM 39.3481 -79.9825 113° Southeast 470 541 31,000  Level Washington Center
08:42AM 39.2997 -79.8239 111° Southeast 470 541 31,000  Level Washington Center
08:43AM 39.2844 -79.6569 97° East 460 529 31,000 -600 Level Washington Center
08:44AM 39.2714 -79.4844 96° East 460 529 29,800 -1,560 Descending Washington Center
08:45AM 39.2558 -79.3175 97° East 467 537 28,000 -1,920 Descending Washington Center
08:46AM 39.2403 -79.1506 97° East 472 543 26,000 -1,860 Descending Washington Center
08:47AM 39.2261 -78.9917 97° East 459 528 24,300 -1,800 Descending Washington Center
08:48AM 39.2114 -78.8411 97° East 436 502 22,400 -1,920 Descending Washington Center
08:49AM 39.1967 -78.6903 97° East 423 487 20,600 -1,800 Descending Washington Center
08:50AM 39.1817 -78.5425 97° East 423 487 18,900 -1,680 Descending Washington Center
08:51AM 39.1667 -78.3839 97° East 413 475 17,300 -1,440 Descending Washington Center
08:52AM 39.1364 -78.2489 106° East 402 463 16,100 -1,140 Descending Washington Center
08:53AM 39.1017 -78.1139 108° East 396 456 15,100 -1,260 Descending Washington Center
08:54AM 39.0669 -77.9844 109° East 389 448 13,700 -1,440 Descending Washington Center
08:55AM 39.0358 -77.8578 108° East 376 433 12,200 -1,380 Descending Washington Center
08:56AM 39.0086 -77.7500 108° East 363 418 11,000 -1,020 Descending Washington Center
08:57AM 38.9772 -77.6342 109° East 323 372 10,200 -960 Descending Washington Center
08:58AM 38.9667 -77.5833 105° East 311 358 9,600 -1,200 Descending Potomac TRACON
08:59AM 38.9167 -77.4833 123° Southeast 303 349 8,400 -1,260 Descending Potomac TRACON
09:00AM 38.8833 -77.3833 113° Southeast 292 336 7,100 -1,200 Descending Potomac TRACON
09:01AM 38.8500 -77.3000 117° Southeast 276 318 6,000 -600 Descending Potomac TRACON
09:02AM 38.8167 -77.2333 123° Southeast 237 273 6,000  Level Potomac TRACON
09:03AM 38.7833 -77.1667 123° Southeast 236 272 6,000  Level Potomac TRACON
09:04AM 38.7333 -77.1167 142° Southeast 235 270 6,000 -300 Level Potomac TRACON
09:05AM 38.6833 -77.1167 180° South 223 257 5,500 -540 Descending Potomac TRACON
09:06AM 38.6167 -77.1000 169° South 222 255 5,000 -780 Descending Potomac TRACON
09:07AM 38.5500 -77.1000 180° South 221 254 4,000 -840 Descending Potomac TRACON
09:08AM 38.5167 -77.0500 130° Southeast 239 275 3,400 -540 Descending Potomac TRACON
09:09AM 38.5500 -77.0000 50° Northeast 232 267 3,000 -240 Descending Potomac TRACON
09:10AM 38.6000 -77.0167 345° North 179 206 3,000  Level Potomac TRACON
09:11AM 38.6500 -77.0333 345° North 179 206 3,000 -120 Level Potomac TRACON
09:12AM 38.7000 -77.0333 360° North 179 206 2,800 -240 Descending Potomac TRACON